sensor_id;sensor_type;location;lat;lon;timestamp;P1;durP1;ratioP1;P2;durP2;ratioP2
50104;SDS011;47690;39.202;-77.198;2023-08-01T00:02:07;2.88;;;2.20;;
50104;SDS011;47690;39.202;-77.198;2023-08-01T00:04:39;2.50;;;2.10;;
50104;SDS011;47690;39.202;-77.198;2023-08-01T00:07:11;2.45;;;2.20;;
50104;SDS011;47690;39.202;-77.198;2023-08-01T00:09:44;2.30;;;2.10;;
50104;SDS011;47690;39.202;-77.198;2023-08-01T00:12:14;2.40;;;2.10;;
50104;SDS011;47690;39.202;-77.198;2023-08-01T00:14:46;2.42;;;2.00;;
50104;SDS011;47690;39.202;-77.198;2023-08-01T00:17:18;2.88;;;2.20;;
50104;SDS011;47690;39.202;-77.198;2023-08-01T00:19:51;3.00;;;2.33;;
50104;SDS011;47690;39.202;-77.198;2023-08-01T00:22:24;2.10;;;1.90;;
50104;SDS011;47690;39.202;-77.198;2023-08-01T00:24:54;2.53;;;2.33;;
50104;SDS011;47690;39.202;-77.198;2023-08-01T00:27:23;2.35;;;2.15;;
50104;SDS011;47690;39.202;-77.198;2023-08-01T00:29:56;2.20;;;2.00;;
50104;SDS011;47690;39.202;-77.198;2023-08-01T00:32:26;2.13;;;1.90;;
50104;SDS011;47690;39.202;-77.198;2023-08-01T00:34:59;2.15;;;1.95;;
50104;SDS011;47690;39.202;-77.198;2023-08-01T00:37:34;2.20;;;2.00;;
50104;SDS011;47690;39.202;-77.198;2023-08-01T00:40:08;2.85;;;2.05;;
50104;SDS011;47690;39.202;-77.198;2023-08-01T00:42:44;2.30;;;2.00;;
50104;SDS011;47690;39.202;-77.198;2023-08-01T00:45:15;2.40;;;2.10;;
50104;SDS011;47690;39.202;-77.198;2023-08-01T00:47:48;2.30;;;2.10;;
50104;SDS011;47690;39.202;-77.198;2023-08-01T00:50:18;1.95;;;1.80;;
50104;SDS011;47690;39.202;-77.198;2023-08-01T00:52:50;2.58;;;2.20;;
50104;SDS011;47690;39.202;-77.198;2023-08-01T00:55:22;2.30;;;2.10;;
50104;SDS011;47690;39.202;-77.198;2023-08-01T00:57:53;4.07;;;2.13;;
50104;SDS011;47690;39.202;-77.198;2023-08-01T01:00:26;2.20;;;1.90;;
50104;SDS011;47690;39.202;-77.198;2023-08-01T01:02:57;2.50;;;2.05;;
50104;SDS011;47690;39.202;-77.198;2023-08-01T01:05:31;2.33;;;2.13;;
50104;SDS011;47690;39.202;-77.198;2023-08-01T01:08:08;2.90;;;2.30;;
50104;SDS011;47690;39.202;-77.198;2023-08-01T01:10:40;2.20;;;2.00;;
50104;SDS011;47690;39.202;-77.198;2023-08-01T01:13:11;2.30;;;2.00;;
50104;SDS011;47690;39.202;-77.198;2023-08-01T01:15:46;2.20;;;2.00;;
50104;SDS011;47690;39.202;-77.198;2023-08-01T01:18:20;3.20;;;2.22;;
50104;SDS011;47690;39.202;-77.198;2023-08-01T01:20:52;2.30;;;2.10;;
50104;SDS011;47690;39.202;-77.198;2023-08-01T01:23:22;2.10;;;1.90;;
50104;SDS011;47690;39.202;-77.198;2023-08-01T01:25:54;2.28;;;2.05;;
50104;SDS011;47690;39.202;-77.198;2023-08-01T01:28:28;2.22;;;2.03;;
50104;SDS011;47690;39.202;-77.198;2023-08-01T01:31:09;2.42;;;2.20;;
50104;SDS011;47690;39.202;-77.198;2023-08-01T01:33:41;2.20;;;1.90;;
50104;SDS011;47690;39.202;-77.198;2023-08-01T01:36:13;2.30;;;1.92;;
50104;SDS011;47690;39.202;-77.198;2023-08-01T01:38:42;2.50;;;2.13;;
50104;SDS011;47690;39.202;-77.198;2023-08-01T01:41:13;2.28;;;2.08;;
50104;SDS011;47690;39.202;-77.198;2023-08-01T01:43:42;2.10;;;1.90;;
50104;SDS011;47690;39.202;-77.198;2023-08-01T01:46:17;2.40;;;2.20;;
50104;SDS011;47690;39.202;-77.198;2023-08-01T01:48:47;2.20;;;2.00;;
50104;SDS011;47690;39.202;-77.198;2023-08-01T01:51:19;2.33;;;2.10;;
50104;SDS011;47690;39.202;-77.198;2023-08-01T01:54:14;3.03;;;1.98;;
50104;SDS011;47690;39.202;-77.198;2023-08-01T01:56:47;2.30;;;2.10;;
50104;SDS011;47690;39.202;-77.198;2023-08-01T01:59:17;2.40;;;2.00;;
50104;SDS011;47690;39.202;-77.198;2023-08-01T02:01:47;2.85;;;2.15;;
50104;SDS011;47690;39.202;-77.198;2023-08-01T02:04:18;2.70;;;2.10;;
50104;SDS011;47690;39.202;-77.198;2023-08-01T02:06:50;2.30;;;2.08;;
50104;SDS011;47690;39.202;-77.198;2023-08-01T02:09:32;2.10;;;1.90;;
50104;SDS011;47690;39.202;-77.198;2023-08-01T02:12:05;2.15;;;1.90;;
50104;SDS011;47690;39.202;-77.198;2023-08-01T02:14:42;2.40;;;2.20;;
50104;SDS011;47690;39.202;-77.198;2023-08-01T02:17:15;2.58;;;2.30;;
50104;SDS011;47690;39.202;-77.198;2023-08-01T02:19:46;2.78;;;2.38;;
50104;SDS011;47690;39.202;-77.198;2023-08-01T02:22:18;2.70;;;2.10;;
50104;SDS011;47690;39.202;-77.198;2023-08-01T02:24:48;2.20;;;2.00;;
50104;SDS011;47690;39.202;-77.198;2023-08-01T02:27:19;2.42;;;2.00;;
50104;SDS011;47690;39.202;-77.198;2023-08-01T02:29:53;2.30;;;2.00;;
50104;SDS011;47690;39.202;-77.198;2023-08-01T02:32:29;2.40;;;1.90;;
50104;SDS011;47690;39.202;-77.198;2023-08-01T02:35:06;2.50;;;2.20;;
50104;SDS011;47690;39.202;-77.198;2023-08-01T02:37:40;4.13;;;2.30;;
50104;SDS011;47690;39.202;-77.198;2023-08-01T02:40:20;2.70;;;2.20;;
50104;SDS011;47690;39.202;-77.198;2023-08-01T02:42:52;2.72;;;2.10;;
50104;SDS011;47690;39.202;-77.198;2023-08-01T02:45:25;2.15;;;1.95;;
50104;SDS011;47690;39.202;-77.198;2023-08-01T02:48:04;2.40;;;2.20;;
50104;SDS011;47690;39.202;-77.198;2023-08-01T02:50:42;5.03;;;2.10;;
50104;SDS011;47690;39.202;-77.198;2023-08-01T02:53:19;2.22;;;2.03;;
50104;SDS011;47690;39.202;-77.198;2023-08-01T02:58:31;2.33;;;2.08;;
50104;SDS011;47690;39.202;-77.198;2023-08-01T03:01:09;2.30;;;2.10;;
50104;SDS011;47690;39.202;-77.198;2023-08-01T03:03:48;2.20;;;2.00;;
50104;SDS011;47690;39.202;-77.198;2023-08-01T03:06:18;2.53;;;2.30;;
50104;SDS011;47690;39.202;-77.198;2023-08-01T03:08:51;2.57;;;2.10;;
50104;SDS011;47690;39.202;-77.198;2023-08-01T03:11:22;2.78;;;2.10;;
50104;SDS011;47690;39.202;-77.198;2023-08-01T03:13:52;2.25;;;2.05;;
50104;SDS011;47690;39.202;-77.198;2023-08-01T03:16:21;4.25;;;1.90;;
50104;SDS011;47690;39.202;-77.198;2023-08-01T03:18:51;2.05;;;1.85;;
50104;SDS011;47690;39.202;-77.198;2023-08-01T03:21:21;2.22;;;2.00;;
50104;SDS011;47690;39.202;-77.198;2023-08-01T03:23:50;3.15;;;2.22;;
50104;SDS011;47690;39.202;-77.198;2023-08-01T03:26:19;2.20;;;2.00;;
50104;SDS011;47690;39.202;-77.198;2023-08-01T03:28:49;2.40;;;2.20;;
50104;SDS011;47690;39.202;-77.198;2023-08-01T03:31:18;3.35;;;2.20;;
50104;SDS011;47690;39.202;-77.198;2023-08-01T03:33:48;2.50;;;2.22;;
50104;SDS011;47690;39.202;-77.198;2023-08-01T03:36:19;2.28;;;2.03;;
50104;SDS011;47690;39.202;-77.198;2023-08-01T03:38:50;3.30;;;2.10;;
50104;SDS011;47690;39.202;-77.198;2023-08-01T03:41:19;2.33;;;2.10;;
50104;SDS011;47690;39.202;-77.198;2023-08-01T03:43:49;2.47;;;2.28;;
50104;SDS011;47690;39.202;-77.198;2023-08-01T03:46:18;2.35;;;2.15;;
50104;SDS011;47690;39.202;-77.198;2023-08-01T03:48:48;2.22;;;2.03;;
50104;SDS011;47690;39.202;-77.198;2023-08-01T03:51:17;2.22;;;2.03;;
50104;SDS011;47690;39.202;-77.198;2023-08-01T03:53:49;2.20;;;2.00;;
50104;SDS011;47690;39.202;-77.198;2023-08-01T03:56:34;3.28;;;2.30;;
50104;SDS011;47690;39.202;-77.198;2023-08-01T03:59:05;2.80;;;2.30;;
50104;SDS011;47690;39.202;-77.198;2023-08-01T04:01:37;5.57;;;2.30;;
50104;SDS011;47690;39.202;-77.198;2023-08-01T04:04:08;3.05;;;2.28;;
50104;SDS011;47690;39.202;-77.198;2023-08-01T04:06:39;2.30;;;2.10;;
50104;SDS011;47690;39.202;-77.198;2023-08-01T04:09:10;2.33;;;2.13;;
50104;SDS011;47690;39.202;-77.198;2023-08-01T04:11:39;2.10;;;1.90;;
50104;SDS011;47690;39.202;-77.198;2023-08-01T04:14:09;2.35;;;2.10;;
50104;SDS011;47690;39.202;-77.198;2023-08-01T04:16:44;2.17;;;1.98;;
50104;SDS011;47690;39.202;-77.198;2023-08-01T04:19:16;2.22;;;2.03;;
50104;SDS011;47690;39.202;-77.198;2023-08-01T04:21:50;2.97;;;2.58;;
50104;SDS011;47690;39.202;-77.198;2023-08-01T04:24:20;2.60;;;2.17;;
50104;SDS011;47690;39.202;-77.198;2023-08-01T04:26:50;2.30;;;2.10;;
50104;SDS011;47690;39.202;-77.198;2023-08-01T04:29:25;3.85;;;2.22;;
50104;SDS011;47690;39.202;-77.198;2023-08-01T04:31:56;2.42;;;2.20;;
50104;SDS011;47690;39.202;-77.198;2023-08-01T04:34:26;2.83;;;2.00;;
50104;SDS011;47690;39.202;-77.198;2023-08-01T04:36:57;2.40;;;2.20;;
50104;SDS011;47690;39.202;-77.198;2023-08-01T04:39:30;2.30;;;2.10;;
50104;SDS011;47690;39.202;-77.198;2023-08-01T04:42:00;2.28;;;2.08;;
50104;SDS011;47690;39.202;-77.198;2023-08-01T04:44:30;2.20;;;2.00;;
50104;SDS011;47690;39.202;-77.198;2023-08-01T04:47:01;2.63;;;2.10;;
50104;SDS011;47690;39.202;-77.198;2023-08-01T04:49:31;2.45;;;2.20;;
50104;SDS011;47690;39.202;-77.198;2023-08-01T04:52:00;3.15;;;2.30;;
50104;SDS011;47690;39.202;-77.198;2023-08-01T04:54:30;3.92;;;2.30;;
50104;SDS011;47690;39.202;-77.198;2023-08-01T04:57:02;2.55;;;2.35;;
50104;SDS011;47690;39.202;-77.198;2023-08-01T04:59:33;2.65;;;2.20;;
50104;SDS011;47690;39.202;-77.198;2023-08-01T05:02:07;2.30;;;2.10;;
50104;SDS011;47690;39.202;-77.198;2023-08-01T05:04:42;2.83;;;2.40;;
50104;SDS011;47690;39.202;-77.198;2023-08-01T05:07:15;2.38;;;2.17;;
50104;SDS011;47690;39.202;-77.198;2023-08-01T05:09:50;2.35;;;2.10;;
50104;SDS011;47690;39.202;-77.198;2023-08-01T05:12:24;2.85;;;2.30;;
50104;SDS011;47690;39.202;-77.198;2023-08-01T05:14:54;2.38;;;2.17;;
50104;SDS011;47690;39.202;-77.198;2023-08-01T05:17:25;2.03;;;1.83;;
50104;SDS011;47690;39.202;-77.198;2023-08-01T05:19:54;3.10;;;2.20;;
50104;SDS011;47690;39.202;-77.198;2023-08-01T05:22:25;2.40;;;2.20;;
50104;SDS011;47690;39.202;-77.198;2023-08-01T05:24:54;2.50;;;2.20;;
50104;SDS011;47690;39.202;-77.198;2023-08-01T05:27:25;4.28;;;2.30;;
50104;SDS011;47690;39.202;-77.198;2023-08-01T05:29:55;2.83;;;2.40;;
50104;SDS011;47690;39.202;-77.198;2023-08-01T05:32:25;3.08;;;2.20;;
50104;SDS011;47690;39.202;-77.198;2023-08-01T05:34:54;2.60;;;2.40;;
50104;SDS011;47690;39.202;-77.198;2023-08-01T05:37:25;2.20;;;2.00;;
50104;SDS011;47690;39.202;-77.198;2023-08-01T05:39:55;2.60;;;2.20;;
50104;SDS011;47690;39.202;-77.198;2023-08-01T05:42:25;3.22;;;2.28;;
50104;SDS011;47690;39.202;-77.198;2023-08-01T05:44:56;2.88;;;2.25;;
50104;SDS011;47690;39.202;-77.198;2023-08-01T05:47:26;2.50;;;2.30;;
50104;SDS011;47690;39.202;-77.198;2023-08-01T05:49:58;2.50;;;2.30;;
50104;SDS011;47690;39.202;-77.198;2023-08-01T05:52:29;2.42;;;2.20;;
50104;SDS011;47690;39.202;-77.198;2023-08-01T05:55:00;3.00;;;2.33;;
50104;SDS011;47690;39.202;-77.198;2023-08-01T05:57:30;2.35;;;2.15;;
50104;SDS011;47690;39.202;-77.198;2023-08-01T06:00:00;2.60;;;2.35;;
50104;SDS011;47690;39.202;-77.198;2023-08-01T06:02:40;2.65;;;2.10;;
50104;SDS011;47690;39.202;-77.198;2023-08-01T06:05:10;3.13;;;2.50;;
50104;SDS011;47690;39.202;-77.198;2023-08-01T06:07:40;2.65;;;1.98;;
50104;SDS011;47690;39.202;-77.198;2023-08-01T06:10:10;2.75;;;2.42;;
50104;SDS011;47690;39.202;-77.198;2023-08-01T06:12:40;2.83;;;2.20;;
50104;SDS011;47690;39.202;-77.198;2023-08-01T06:15:10;2.75;;;2.28;;
50104;SDS011;47690;39.202;-77.198;2023-08-01T06:17:41;2.38;;;2.17;;
50104;SDS011;47690;39.202;-77.198;2023-08-01T06:20:11;2.30;;;2.10;;
50104;SDS011;47690;39.202;-77.198;2023-08-01T06:22:44;4.50;;;2.30;;
50104;SDS011;47690;39.202;-77.198;2023-08-01T06:25:16;3.53;;;2.53;;
50104;SDS011;47690;39.202;-77.198;2023-08-01T06:27:48;2.60;;;2.40;;
50104;SDS011;47690;39.202;-77.198;2023-08-01T06:30:20;2.78;;;2.35;;
50104;SDS011;47690;39.202;-77.198;2023-08-01T06:32:50;2.47;;;2.17;;
50104;SDS011;47690;39.202;-77.198;2023-08-01T06:35:20;2.80;;;2.30;;
50104;SDS011;47690;39.202;-77.198;2023-08-01T06:37:55;2.67;;;2.35;;
50104;SDS011;47690;39.202;-77.198;2023-08-01T06:40:28;2.40;;;2.20;;
50104;SDS011;47690;39.202;-77.198;2023-08-01T06:43:04;2.40;;;2.20;;
50104;SDS011;47690;39.202;-77.198;2023-08-01T06:45:36;2.28;;;2.00;;
50104;SDS011;47690;39.202;-77.198;2023-08-01T06:48:06;2.20;;;2.00;;
50104;SDS011;47690;39.202;-77.198;2023-08-01T06:50:39;2.30;;;2.10;;
50104;SDS011;47690;39.202;-77.198;2023-08-01T06:53:09;2.50;;;2.13;;
50104;SDS011;47690;39.202;-77.198;2023-08-01T06:55:40;3.70;;;2.33;;
50104;SDS011;47690;39.202;-77.198;2023-08-01T06:58:10;2.55;;;2.17;;
50104;SDS011;47690;39.202;-77.198;2023-08-01T07:00:40;2.50;;;2.17;;
50104;SDS011;47690;39.202;-77.198;2023-08-01T07:03:11;3.00;;;2.25;;
50104;SDS011;47690;39.202;-77.198;2023-08-01T07:05:42;2.45;;;2.22;;
50104;SDS011;47690;39.202;-77.198;2023-08-01T07:08:12;2.45;;;2.15;;
50104;SDS011;47690;39.202;-77.198;2023-08-01T07:10:45;2.83;;;2.30;;
50104;SDS011;47690;39.202;-77.198;2023-08-01T07:13:17;3.42;;;2.50;;
50104;SDS011;47690;39.202;-77.198;2023-08-01T07:15:48;3.17;;;2.17;;
50104;SDS011;47690;39.202;-77.198;2023-08-01T07:18:17;2.97;;;2.28;;
50104;SDS011;47690;39.202;-77.198;2023-08-01T07:20:48;3.25;;;2.20;;
50104;SDS011;47690;39.202;-77.198;2023-08-01T07:23:28;2.13;;;1.92;;
50104;SDS011;47690;39.202;-77.198;2023-08-01T07:25:58;2.60;;;2.13;;
50104;SDS011;47690;39.202;-77.198;2023-08-01T07:28:28;3.03;;;2.20;;
50104;SDS011;47690;39.202;-77.198;2023-08-01T07:31:03;3.22;;;2.42;;
50104;SDS011;47690;39.202;-77.198;2023-08-01T07:33:38;2.83;;;2.47;;
50104;SDS011;47690;39.202;-77.198;2023-08-01T07:36:16;2.90;;;2.40;;
50104;SDS011;47690;39.202;-77.198;2023-08-01T07:38:48;2.75;;;2.42;;
50104;SDS011;47690;39.202;-77.198;2023-08-01T07:41:23;2.60;;;2.40;;
50104;SDS011;47690;39.202;-77.198;2023-08-01T07:43:52;2.63;;;2.33;;
50104;SDS011;47690;39.202;-77.198;2023-08-01T07:46:22;3.28;;;2.70;;
50104;SDS011;47690;39.202;-77.198;2023-08-01T07:48:52;2.95;;;2.60;;
50104;SDS011;47690;39.202;-77.198;2023-08-01T07:51:22;3.90;;;2.60;;
50104;SDS011;47690;39.202;-77.198;2023-08-01T07:53:52;2.90;;;2.60;;
50104;SDS011;47690;39.202;-77.198;2023-08-01T07:56:26;2.70;;;2.50;;
50104;SDS011;47690;39.202;-77.198;2023-08-01T07:58:57;2.85;;;2.35;;
50104;SDS011;47690;39.202;-77.198;2023-08-01T08:01:26;3.40;;;2.38;;
50104;SDS011;47690;39.202;-77.198;2023-08-01T08:03:58;2.67;;;2.40;;
50104;SDS011;47690;39.202;-77.198;2023-08-01T08:06:30;2.72;;;2.53;;
50104;SDS011;47690;39.202;-77.198;2023-08-01T08:09:00;2.53;;;2.20;;
50104;SDS011;47690;39.202;-77.198;2023-08-01T08:11:30;2.45;;;2.20;;
50104;SDS011;47690;39.202;-77.198;2023-08-01T08:13:59;2.80;;;2.20;;
50104;SDS011;47690;39.202;-77.198;2023-08-01T08:16:29;3.22;;;2.30;;
50104;SDS011;47690;39.202;-77.198;2023-08-01T08:19:00;2.47;;;2.20;;
50104;SDS011;47690;39.202;-77.198;2023-08-01T08:21:30;2.70;;;2.40;;
50104;SDS011;47690;39.202;-77.198;2023-08-01T08:24:09;2.60;;;2.20;;
50104;SDS011;47690;39.202;-77.198;2023-08-01T08:26:40;2.75;;;2.22;;
50104;SDS011;47690;39.202;-77.198;2023-08-01T08:29:10;2.40;;;2.20;;
50104;SDS011;47690;39.202;-77.198;2023-08-01T08:31:41;2.50;;;2.30;;
50104;SDS011;47690;39.202;-77.198;2023-08-01T08:34:11;3.97;;;2.50;;
50104;SDS011;47690;39.202;-77.198;2023-08-01T08:36:41;2.95;;;2.65;;
50104;SDS011;47690;39.202;-77.198;2023-08-01T08:39:10;3.40;;;2.53;;
50104;SDS011;47690;39.202;-77.198;2023-08-01T08:41:45;2.70;;;2.40;;
50104;SDS011;47690;39.202;-77.198;2023-08-01T08:44:19;3.28;;;2.47;;
50104;SDS011;47690;39.202;-77.198;2023-08-01T08:46:51;3.97;;;2.40;;
50104;SDS011;47690;39.202;-77.198;2023-08-01T08:49:22;2.80;;;2.40;;
50104;SDS011;47690;39.202;-77.198;2023-08-01T08:51:56;2.92;;;2.63;;
50104;SDS011;47690;39.202;-77.198;2023-08-01T08:54:26;4.13;;;2.80;;
50104;SDS011;47690;39.202;-77.198;2023-08-01T08:56:58;4.20;;;2.75;;
50104;SDS011;47690;39.202;-77.198;2023-08-01T08:59:30;3.03;;;2.72;;
50104;SDS011;47690;39.202;-77.198;2023-08-01T09:02:02;2.97;;;2.60;;
50104;SDS011;47690;39.202;-77.198;2023-08-01T09:04:33;2.80;;;2.50;;
50104;SDS011;47690;39.202;-77.198;2023-08-01T09:07:07;3.08;;;2.63;;
50104;SDS011;47690;39.202;-77.198;2023-08-01T09:09:40;4.55;;;2.67;;
50104;SDS011;47690;39.202;-77.198;2023-08-01T09:12:10;3.03;;;2.72;;
50104;SDS011;47690;39.202;-77.198;2023-08-01T09:14:40;3.00;;;2.70;;
50104;SDS011;47690;39.202;-77.198;2023-08-01T09:17:10;2.58;;;2.33;;
50104;SDS011;47690;39.202;-77.198;2023-08-01T09:19:40;3.47;;;2.50;;
50104;SDS011;47690;39.202;-77.198;2023-08-01T09:22:19;2.80;;;2.50;;
50104;SDS011;47690;39.202;-77.198;2023-08-01T09:24:52;2.92;;;2.33;;
50104;SDS011;47690;39.202;-77.198;2023-08-01T09:27:22;2.85;;;2.40;;
50104;SDS011;47690;39.202;-77.198;2023-08-01T09:29:52;2.72;;;2.40;;
50104;SDS011;47690;39.202;-77.198;2023-08-01T09:32:22;3.00;;;2.60;;
50104;SDS011;47690;39.202;-77.198;2023-08-01T09:34:57;3.05;;;2.55;;
50104;SDS011;47690;39.202;-77.198;2023-08-01T09:37:37;4.45;;;2.83;;
50104;SDS011;47690;39.202;-77.198;2023-08-01T09:40:09;2.60;;;2.40;;
50104;SDS011;47690;39.202;-77.198;2023-08-01T09:45:30;3.63;;;2.40;;
50104;SDS011;47690;39.202;-77.198;2023-08-01T09:48:02;3.67;;;2.40;;
50104;SDS011;47690;39.202;-77.198;2023-08-01T09:50:36;3.10;;;2.70;;
50104;SDS011;47690;39.202;-77.198;2023-08-01T09:53:07;3.00;;;2.47;;
50104;SDS011;47690;39.202;-77.198;2023-08-01T09:55:39;2.80;;;2.40;;
50104;SDS011;47690;39.202;-77.198;2023-08-01T09:58:12;2.97;;;2.67;;
50104;SDS011;47690;39.202;-77.198;2023-08-01T10:00:46;3.13;;;2.50;;
50104;SDS011;47690;39.202;-77.198;2023-08-01T10:03:16;2.80;;;2.50;;
50104;SDS011;47690;39.202;-77.198;2023-08-01T10:05:50;3.20;;;2.70;;
50104;SDS011;47690;39.202;-77.198;2023-08-01T10:08:23;3.33;;;2.63;;
50104;SDS011;47690;39.202;-77.198;2023-08-01T10:10:54;3.67;;;2.42;;
50104;SDS011;47690;39.202;-77.198;2023-08-01T10:13:25;2.80;;;2.38;;
50104;SDS011;47690;39.202;-77.198;2023-08-01T10:15:57;3.08;;;2.72;;
50104;SDS011;47690;39.202;-77.198;2023-08-01T10:18:29;3.83;;;2.38;;
50104;SDS011;47690;39.202;-77.198;2023-08-01T10:20:58;3.60;;;2.70;;
50104;SDS011;47690;39.202;-77.198;2023-08-01T10:23:29;3.40;;;2.47;;
50104;SDS011;47690;39.202;-77.198;2023-08-01T10:26:00;2.85;;;2.53;;
50104;SDS011;47690;39.202;-77.198;2023-08-01T10:28:40;2.85;;;2.42;;
50104;SDS011;47690;39.202;-77.198;2023-08-01T10:31:19;3.03;;;2.70;;
50104;SDS011;47690;39.202;-77.198;2023-08-01T10:33:50;2.60;;;2.40;;
50104;SDS011;47690;39.202;-77.198;2023-08-01T10:36:23;2.90;;;2.60;;
50104;SDS011;47690;39.202;-77.198;2023-08-01T10:38:58;2.97;;;2.60;;
50104;SDS011;47690;39.202;-77.198;2023-08-01T10:41:33;3.63;;;2.90;;
50104;SDS011;47690;39.202;-77.198;2023-08-01T10:46:59;4.35;;;2.65;;
50104;SDS011;47690;39.202;-77.198;2023-08-01T10:49:38;2.97;;;2.50;;
50104;SDS011;47690;39.202;-77.198;2023-08-01T10:55:00;2.80;;;2.50;;
50104;SDS011;47690;39.202;-77.198;2023-08-01T10:57:34;3.22;;;2.70;;
50104;SDS011;47690;39.202;-77.198;2023-08-01T11:00:08;2.60;;;2.40;;
50104;SDS011;47690;39.202;-77.198;2023-08-01T11:02:38;3.00;;;2.38;;
50104;SDS011;47690;39.202;-77.198;2023-08-01T11:05:11;2.75;;;2.45;;
50104;SDS011;47690;39.202;-77.198;2023-08-01T11:07:42;3.20;;;2.60;;
50104;SDS011;47690;39.202;-77.198;2023-08-01T11:10:26;3.42;;;2.40;;
50104;SDS011;47690;39.202;-77.198;2023-08-01T11:12:58;3.70;;;2.53;;
50104;SDS011;47690;39.202;-77.198;2023-08-01T11:15:30;3.92;;;2.70;;
50104;SDS011;47690;39.202;-77.198;2023-08-01T11:18:00;2.80;;;2.55;;
50104;SDS011;47690;39.202;-77.198;2023-08-01T11:20:38;2.95;;;2.55;;
50104;SDS011;47690;39.202;-77.198;2023-08-01T11:23:10;3.30;;;2.70;;
50104;SDS011;47690;39.202;-77.198;2023-08-01T11:25:41;3.15;;;2.70;;
50104;SDS011;47690;39.202;-77.198;2023-08-01T11:28:14;4.75;;;3.00;;
50104;SDS011;47690;39.202;-77.198;2023-08-01T11:30:46;3.38;;;2.95;;
50104;SDS011;47690;39.202;-77.198;2023-08-01T11:33:18;3.17;;;2.88;;
50104;SDS011;47690;39.202;-77.198;2023-08-01T11:35:59;4.10;;;3.30;;
50104;SDS011;47690;39.202;-77.198;2023-08-01T11:38:30;4.05;;;3.25;;
50104;SDS011;47690;39.202;-77.198;2023-08-01T11:41:04;4.38;;;3.35;;
50104;SDS011;47690;39.202;-77.198;2023-08-01T11:43:40;3.35;;;3.05;;
50104;SDS011;47690;39.202;-77.198;2023-08-01T11:46:12;6.05;;;4.00;;
50104;SDS011;47690;39.202;-77.198;2023-08-01T11:48:45;4.32;;;3.70;;
50104;SDS011;47690;39.202;-77.198;2023-08-01T11:51:16;4.25;;;3.70;;
50104;SDS011;47690;39.202;-77.198;2023-08-01T11:53:46;4.82;;;3.40;;
50104;SDS011;47690;39.202;-77.198;2023-08-01T11:56:19;4.63;;;3.50;;
50104;SDS011;47690;39.202;-77.198;2023-08-01T11:58:53;4.40;;;3.50;;
50104;SDS011;47690;39.202;-77.198;2023-08-01T12:01:22;4.45;;;3.80;;
50104;SDS011;47690;39.202;-77.198;2023-08-01T12:03:52;7.47;;;3.63;;
50104;SDS011;47690;39.202;-77.198;2023-08-01T12:06:30;4.85;;;3.65;;
50104;SDS011;47690;39.202;-77.198;2023-08-01T12:09:07;4.78;;;3.80;;
50104;SDS011;47690;39.202;-77.198;2023-08-01T12:11:44;6.00;;;3.80;;
50104;SDS011;47690;39.202;-77.198;2023-08-01T12:14:16;3.65;;;3.30;;
50104;SDS011;47690;39.202;-77.198;2023-08-01T12:16:46;4.45;;;3.63;;
50104;SDS011;47690;39.202;-77.198;2023-08-01T12:19:19;4.80;;;3.65;;
50104;SDS011;47690;39.202;-77.198;2023-08-01T12:21:52;5.10;;;3.83;;
50104;SDS011;47690;39.202;-77.198;2023-08-01T12:24:27;4.25;;;3.67;;
50104;SDS011;47690;39.202;-77.198;2023-08-01T12:27:13;4.30;;;3.90;;
50104;SDS011;47690;39.202;-77.198;2023-08-01T12:29:44;5.32;;;4.20;;
50104;SDS011;47690;39.202;-77.198;2023-08-01T12:32:16;4.63;;;3.75;;
50104;SDS011;47690;39.202;-77.198;2023-08-01T12:34:46;4.53;;;3.72;;
50104;SDS011;47690;39.202;-77.198;2023-08-01T12:37:15;4.18;;;3.38;;
50104;SDS011;47690;39.202;-77.198;2023-08-01T12:39:49;4.53;;;3.97;;
50104;SDS011;47690;39.202;-77.198;2023-08-01T12:42:20;4.57;;;3.80;;
50104;SDS011;47690;39.202;-77.198;2023-08-01T12:44:50;4.63;;;3.67;;
50104;SDS011;47690;39.202;-77.198;2023-08-01T12:47:24;4.63;;;3.58;;
50104;SDS011;47690;39.202;-77.198;2023-08-01T12:49:54;4.82;;;3.85;;
50104;SDS011;47690;39.202;-77.198;2023-08-01T12:52:26;5.57;;;4.13;;
50104;SDS011;47690;39.202;-77.198;2023-08-01T12:54:57;10.68;;;4.30;;
50104;SDS011;47690;39.202;-77.198;2023-08-01T12:57:26;4.53;;;3.85;;
50104;SDS011;47690;39.202;-77.198;2023-08-01T12:59:59;5.07;;;4.03;;
50104;SDS011;47690;39.202;-77.198;2023-08-01T13:02:29;6.40;;;4.30;;
50104;SDS011;47690;39.202;-77.198;2023-08-01T13:04:57;4.07;;;3.67;;
50104;SDS011;47690;39.202;-77.198;2023-08-01T13:07:29;5.78;;;4.15;;
50104;SDS011;47690;39.202;-77.198;2023-08-01T13:10:09;5.60;;;4.35;;
50104;SDS011;47690;39.202;-77.198;2023-08-01T13:12:41;5.25;;;4.05;;
50104;SDS011;47690;39.202;-77.198;2023-08-01T13:15:11;5.78;;;4.00;;
50104;SDS011;47690;39.202;-77.198;2023-08-01T13:17:48;5.68;;;4.00;;
50104;SDS011;47690;39.202;-77.198;2023-08-01T13:20:35;4.90;;;3.90;;
50104;SDS011;47690;39.202;-77.198;2023-08-01T13:23:22;4.78;;;4.00;;
50104;SDS011;47690;39.202;-77.198;2023-08-01T13:25:51;6.10;;;4.10;;
50104;SDS011;47690;39.202;-77.198;2023-08-01T13:28:20;5.53;;;3.92;;
50104;SDS011;47690;39.202;-77.198;2023-08-01T13:30:48;4.32;;;3.88;;
50104;SDS011;47690;39.202;-77.198;2023-08-01T13:33:17;3.80;;;3.40;;
50104;SDS011;47690;39.202;-77.198;2023-08-01T13:35:50;8.77;;;4.03;;
50104;SDS011;47690;39.202;-77.198;2023-08-01T13:38:21;4.43;;;4.00;;
50104;SDS011;47690;39.202;-77.198;2023-08-01T13:40:50;5.75;;;4.30;;
50104;SDS011;47690;39.202;-77.198;2023-08-01T13:43:18;4.68;;;4.00;;
50104;SDS011;47690;39.202;-77.198;2023-08-01T13:45:48;4.80;;;3.83;;
50104;SDS011;47690;39.202;-77.198;2023-08-01T13:48:21;6.60;;;4.43;;
50104;SDS011;47690;39.202;-77.198;2023-08-01T13:50:51;14.15;;;4.57;;
50104;SDS011;47690;39.202;-77.198;2023-08-01T13:53:20;18.48;;;5.05;;
50104;SDS011;47690;39.202;-77.198;2023-08-01T13:56:14;5.30;;;3.85;;
50104;SDS011;47690;39.202;-77.198;2023-08-01T13:58:43;6.07;;;4.00;;
50104;SDS011;47690;39.202;-77.198;2023-08-01T14:01:13;4.43;;;3.72;;
50104;SDS011;47690;39.202;-77.198;2023-08-01T14:03:41;4.53;;;3.72;;
50104;SDS011;47690;39.202;-77.198;2023-08-01T14:06:12;4.22;;;3.83;;
50104;SDS011;47690;39.202;-77.198;2023-08-01T14:08:42;4.10;;;3.60;;
50104;SDS011;47690;39.202;-77.198;2023-08-01T14:11:10;4.70;;;3.72;;
50104;SDS011;47690;39.202;-77.198;2023-08-01T14:13:39;4.88;;;3.60;;
50104;SDS011;47690;39.202;-77.198;2023-08-01T14:16:09;4.35;;;3.80;;
50104;SDS011;47690;39.202;-77.198;2023-08-01T14:18:38;5.15;;;4.47;;
50104;SDS011;47690;39.202;-77.198;2023-08-01T14:21:07;5.00;;;4.18;;
50104;SDS011;47690;39.202;-77.198;2023-08-01T14:23:37;4.43;;;3.90;;
50104;SDS011;47690;39.202;-77.198;2023-08-01T14:26:09;4.93;;;4.00;;
50104;SDS011;47690;39.202;-77.198;2023-08-01T14:28:46;4.65;;;3.85;;
50104;SDS011;47690;39.202;-77.198;2023-08-01T14:31:16;4.40;;;3.95;;
50104;SDS011;47690;39.202;-77.198;2023-08-01T14:33:52;6.72;;;3.90;;
50104;SDS011;47690;39.202;-77.198;2023-08-01T14:36:38;4.53;;;4.05;;
50104;SDS011;47690;39.202;-77.198;2023-08-01T14:39:10;4.35;;;3.80;;
50104;SDS011;47690;39.202;-77.198;2023-08-01T14:41:49;4.50;;;3.80;;
50104;SDS011;47690;39.202;-77.198;2023-08-01T14:44:24;4.47;;;3.65;;
50104;SDS011;47690;39.202;-77.198;2023-08-01T14:46:54;4.07;;;3.60;;
50104;SDS011;47690;39.202;-77.198;2023-08-01T14:49:24;4.78;;;3.97;;
50104;SDS011;47690;39.202;-77.198;2023-08-01T14:54:27;3.83;;;3.25;;
50104;SDS011;47690;39.202;-77.198;2023-08-01T14:56:59;41.75;;;10.73;;
50104;SDS011;47690;39.202;-77.198;2023-08-01T14:59:30;5.65;;;4.40;;
50104;SDS011;47690;39.202;-77.198;2023-08-01T15:02:00;5.95;;;3.78;;
50104;SDS011;47690;39.202;-77.198;2023-08-01T15:04:29;5.32;;;3.72;;